Time;durP1;ratioP1;P1;durP2;ratioP2;P2;SDS_P1;SDS_P2;PMS_P1;PMS_P2;Temp;Humidity;BMP_temperature;BMP_pressure;BME280_temperature;BME280_humidity;BME280_pressure;Samples;Min_cycle;Max_cycle;Signal;HPM_P1;HPM_P2
2022/08/06 00:00:38;;;;;;;4.10;2.10;;;;;;;23.57;52.34;98433.50;8416880;28;20233;-73
2022/08/06 00:04:46;;;;;;;3.80;2.10;;;;;;;23.45;53.08;98430.16;8432622;28;20283;-73
2022/08/06 00:08:49;;;;;;;3.23;2.00;;;;;;;23.59;52.06;98437.69;8378893;28;20451;-72
2022/08/06 00:12:54;;;;;;;6.20;1.80;;;;;;;23.52;52.40;98441.03;8379904;28;20239;-72
2022/08/06 00:16:59;;;;;;;6.73;1.97;;;;;;;23.51;52.34;98456.03;8385499;28;20550;-73
2022/08/06 00:21:02;;;;;;;4.27;2.10;;;;;;;23.57;51.91;98467.84;8384927;28;20231;-73
2022/08/06 00:25:25;;;;;;;3.43;2.00;;;;;;;23.46;51.89;98463.56;8385213;28;20294;-73
2022/08/06 00:29:27;;;;;;;5.40;2.00;;;;;;;23.46;51.84;98463.56;8384573;28;20231;-73
2022/08/06 00:33:50;;;;;;;4.27;1.73;;;;;;;23.45;51.55;98471.63;8384368;28;20223;-72
2022/08/06 00:37:59;;;;;;;5.27;1.80;;;;;;;23.40;51.46;98467.59;8385017;28;20242;-72
2022/08/06 00:42:02;;;;;;;3.40;1.60;;;;;;;23.24;51.75;98451.41;8384859;28;20232;-72
2022/08/06 00:46:05;;;;;;;2.57;1.63;;;;;;;23.34;51.60;98454.06;8384438;28;20518;-73
2022/08/06 00:50:19;;;;;;;4.13;1.80;;;;;;;23.18;51.13;98463.34;8384378;28;20329;-72
2022/08/06 00:54:23;;;;;;;5.33;1.60;;;;;;;23.12;50.41;98471.00;8384281;28;20512;-73
2022/08/06 00:58:37;;;;;;;2.77;1.50;;;;;;;22.95;49.95;98477.72;8384243;28;20227;-73
2022/08/06 01:02:42;;;;;;;2.10;1.50;;;;;;;22.75;49.89;98475.03;8394516;28;20236;-73
2022/08/06 01:06:49;;;;;;;4.07;1.30;;;;;;;22.93;49.58;98474.38;8416696;28;20228;-72
2022/08/06 01:10:59;;;;;;;4.17;1.30;;;;;;;22.80;49.37;98477.25;8416879;28;20290;-72
2022/08/06 01:15:05;;;;;;;4.10;1.50;;;;;;;22.81;49.27;98484.22;8416979;28;20230;-72
2022/08/06 01:19:36;;;;;;;4.20;1.77;;;;;;;22.73;49.45;98492.81;8415877;28;20513;-72
2022/08/06 01:24:12;;;;;;;5.43;1.50;;;;;;;22.78;49.11;98487.13;8422550;28;20231;-72
2022/08/06 01:28:20;;;;;;;3.80;1.40;;;;;;;22.63;48.79;98494.53;8416168;28;20230;-72
2022/08/06 01:32:32;;;;;;;2.30;1.40;;;;;;;22.68;48.91;98502.09;8416380;28;20250;-72
2022/08/06 01:36:40;;;;;;;4.80;1.43;;;;;;;22.67;48.30;98508.31;8416113;28;20234;-72
2022/08/06 01:40:52;;;;;;;5.53;1.77;;;;;;;22.70;48.50;98505.44;8415427;28;20231;-72
2022/08/06 01:45:00;;;;;;;4.43;1.30;;;;;;;22.72;48.55;98508.78;8415726;28;20302;-72
2022/08/06 01:49:04;;;;;;;3.20;1.70;;;;;;;22.59;48.67;98507.16;8415492;28;20242;-73
2022/08/06 01:53:30;;;;;;;5.30;1.50;;;;;;;22.53;48.94;98506.88;8415012;28;20226;-73
2022/08/06 01:57:56;;;;;;;4.40;1.50;;;;;;;22.55;48.61;98512.84;8413883;28;20241;-72
2022/08/06 02:02:23;;;;;;;2.10;1.30;;;;;;;22.44;48.96;98511.09;8415275;28;20405;-72
2022/08/06 02:06:34;;;;;;;3.40;1.73;;;;;;;22.41;48.87;98512.22;8414571;28;20234;-73
2022/08/06 02:10:38;;;;;;;3.93;1.63;;;;;;;22.41;49.24;98512.22;8414721;28;20223;-73
2022/08/06 02:14:47;;;;;;;5.50;1.80;;;;;;;22.43;48.93;98507.66;8414807;28;20447;-72
2022/08/06 02:18:54;;;;;;;2.17;1.47;;;;;;;22.30;49.14;98506.19;8414415;28;20235;-72
2022/08/06 02:22:58;;;;;;;2.73;1.40;;;;;;;22.34;49.10;98513.69;8414239;28;20244;-73
2022/08/06 02:27:01;;;;;;;2.97;1.50;;;;;;;22.20;49.14;98514.81;8414830;28;20238;-72
2022/08/06 02:31:04;;;;;;;3.83;1.60;;;;;;;22.17;48.73;98522.16;8414622;28;20234;-72
2022/08/06 02:35:10;;;;;;;3.00;1.60;;;;;;;22.18;49.94;98527.31;8414317;28;20249;-73
2022/08/06 02:39:17;;;;;;;5.80;1.87;;;;;;;22.18;49.72;98531.72;8414049;28;20223;-73
2022/08/06 02:43:23;;;;;;;6.27;1.60;;;;;;;22.14;49.71;98539.09;8414282;28;20234;-72
2022/08/06 02:47:31;;;;;;;3.13;1.60;;;;;;;22.10;49.75;98542.09;8414199;28;20552;-72
2022/08/06 02:51:59;;;;;;;4.67;1.50;;;;;;;22.14;49.95;98538.22;8446796;28;20229;-72
2022/08/06 02:56:23;;;;;;;4.80;1.80;;;;;;;21.97;50.08;98537.84;8446722;28;20238;-73
2022/08/06 03:00:30;;;;;;;6.80;1.50;;;;;;;21.99;49.75;98529.78;8447317;28;20234;-73
2022/08/06 03:04:35;;;;;;;3.10;1.70;;;;;;;21.96;49.84;98530.88;8447083;28;20230;-73
2022/08/06 03:08:41;;;;;;;4.80;1.80;;;;;;;21.85;49.39;98534.38;8447144;28;20300;-73
2022/08/06 03:12:47;;;;;;;4.43;1.73;;;;;;;21.77;49.65;98528.09;8447051;28;20228;-73
2022/08/06 03:16:51;;;;;;;3.73;1.70;;;;;;;21.84;49.71;98542.44;8446327;28;20238;-72
2022/08/06 03:20:54;;;;;;;3.53;1.70;;;;;;;21.81;49.93;98537.41;8446987;28;20237;-72
2022/08/06 03:25:01;;;;;;;5.23;1.70;;;;;;;21.74;50.50;98546.78;8446770;28;20225;-72
2022/08/06 03:29:05;;;;;;;3.77;1.60;;;;;;;21.59;51.00;98547.06;8446640;28;20237;-72
2022/08/06 03:33:14;;;;;;;4.47;1.90;;;;;;;21.76;50.69;98537.81;8446628;28;20243;-73
2022/08/06 03:37:37;;;;;;;5.70;2.13;;;;;;;21.67;51.01;98554.34;8446305;28;20237;-73
2022/08/06 03:42:01;;;;;;;4.57;1.77;;;;;;;21.62;51.33;98559.97;8412834;28;20449;-72
2022/08/06 03:46:11;;;;;;;5.63;1.90;;;;;;;21.63;50.91;98574.00;8412826;28;20288;-73
2022/08/06 03:50:16;;;;;;;4.67;1.70;;;;;;;21.74;50.50;98576.63;8417737;28;20230;-72
2022/08/06 03:54:29;;;;;;;4.13;1.97;;;;;;;21.63;50.75;98581.91;8419434;28;20234;-72
2022/08/06 03:58:38;;;;;;;3.40;1.63;;;;;;;21.63;50.77;98581.91;8418976;28;20259;-73
2022/08/06 04:02:45;;;;;;;4.47;1.83;;;;;;;21.71;50.79;98587.41;8419129;28;20238;-73
2022/08/06 04:06:49;;;;;;;5.33;2.00;;;;;;;21.65;50.76;98594.00;8452129;28;20233;-72
2022/08/06 04:10:53;;;;;;;3.07;1.90;;;;;;;21.59;51.03;98602.41;8452479;28;20416;-72
2022/08/06 04:15:01;;;;;;;3.33;1.97;;;;;;;21.71;50.52;98599.75;8452449;28;20226;-72
2022/08/06 04:19:11;;;;;;;3.27;1.80;;;;;;;21.52;50.80;98603.84;8452279;28;20283;-72
2022/08/06 04:23:17;;;;;;;6.50;1.87;;;;;;;21.54;51.02;98625.66;8451979;28;20226;-72
2022/08/06 04:27:42;;;;;;;5.83;2.00;;;;;;;21.60;51.03;98621.69;8452069;28;20441;-73
2022/08/06 04:31:57;;;;;;;3.20;1.83;;;;;;;21.41;51.22;98628.38;8417986;28;20513;-72
2022/08/06 04:36:20;;;;;;;3.60;1.77;;;;;;;21.41;51.45;98633.63;8418045;28;20236;-73
2022/08/06 04:40:27;;;;;;;5.53;2.03;;;;;;;21.43;51.03;98644.06;8418159;28;20223;-72
2022/08/06 04:44:43;;;;;;;5.00;2.10;;;;;;;21.36;51.10;98648.13;8417780;28;20352;-73
2022/08/06 04:48:48;;;;;;;3.63;1.83;;;;;;;21.43;50.30;98659.88;8417947;28;20253;-73
2022/08/06 04:53:06;;;;;;;4.27;2.07;;;;;;;21.47;50.48;98662.16;8417398;28;20237;-73
2022/08/06 04:57:10;;;;;;;5.37;1.93;;;;;;;21.48;50.75;98663.84;8417582;28;20346;-73
2022/08/06 05:01:24;;;;;;;3.33;1.70;;;;;;;21.60;50.00;98666.50;8416381;28;20229;-73
2022/08/06 05:05:32;;;;;;;2.70;1.60;;;;;;;21.50;49.84;98665.53;8417494;28;20237;-73
2022/08/06 05:09:37;;;;;;;4.97;2.00;;;;;;;21.57;50.25;98664.94;8417224;28;20230;-73
2022/08/06 05:13:47;;;;;;;3.73;1.83;;;;;;;21.73;49.68;98676.91;8417166;28;20420;-73
2022/08/06 05:17:57;;;;;;;3.87;1.60;;;;;;;21.65;49.63;98680.97;8423828;28;20240;-73
2022/08/06 05:22:03;;;;;;;5.40;1.80;;;;;;;21.71;48.83;98682.28;8416965;28;20234;-73
2022/08/06 05:26:15;;;;;;;2.43;1.37;;;;;;;21.71;48.58;98695.47;8416816;28;20229;-73
2022/08/06 05:30:28;;;;;;;2.90;1.50;;;;;;;21.78;48.25;98701.09;8416805;28;20234;-73
2022/08/06 05:34:30;;;;;;;3.93;1.67;;;;;;;21.88;47.05;98699.41;8416371;28;20234;-73
2022/08/06 05:38:38;;;;;;;3.97;1.30;;;;;;;21.88;46.42;98695.94;8416023;28;20294;-74
2022/08/06 05:42:53;;;;;;;6.27;1.60;;;;;;;21.66;45.87;98695.81;8422914;28;20313;-73
2022/08/06 05:47:04;;;;;;;3.30;1.50;;;;;;;21.97;44.95;98706.59;8415945;28;20248;-73
2022/08/06 05:51:12;;;;;;;1.90;1.13;;;;;;;21.95;43.96;98711.16;8415909;28;20227;-73
2022/08/06 05:55:20;;;;;;;2.73;1.40;;;;;;;21.93;43.58;98718.31;8415740;28;20237;-74
2022/08/06 05:59:44;;;;;;;2.07;0.93;;;;;;;21.89;42.15;98710.78;8415418;28;20297;-74
2022/08/06 06:04:00;;;;;;;1.60;1.00;;;;;;;21.82;42.36;98716.56;8421513;28;20233;-74
2022/08/06 06:08:08;;;;;;;4.20;1.13;;;;;;;22.03;42.14;98715.81;8415209;28;20241;-74
2022/08/06 06:12:33;;;;;;;4.60;1.20;;;;;;;22.22;42.02;98717.81;8414658;28;20232;-74
2022/08/06 06:16:53;;;;;;;3.23;1.00;;;;;;;22.37;40.92;98721.03;8415145;28;20231;-74
2022/08/06 06:21:01;;;;;;;5.00;1.10;;;;;;;22.57;40.69;98725.53;8414221;28;20231;-74
2022/08/06 06:25:25;;;;;;;2.50;1.10;;;;;;;22.67;39.98;98733.53;8414891;28;20226;-74
2022/08/06 06:29:39;;;;;;;3.70;1.00;;;;;;;22.79;38.51;98735.19;8414873;28;20559;-74
2022/08/06 06:34:07;;;;;;;1.83;0.90;;;;;;;22.82;38.75;98734.91;8413903;28;20463;-74
2022/08/06 06:38:25;;;;;;;5.47;1.20;;;;;;;22.59;37.52;98739.44;8414368;28;20235;-74
2022/08/06 06:42:38;;;;;;;2.10;0.90;;;;;;;22.54;37.16;98739.00;8414029;28;20233;-74
2022/08/06 06:46:46;;;;;;;5.00;0.80;;;;;;;22.53;36.39;98741.75;8413973;28;20310;-74
2022/08/06 06:50:54;;;;;;;4.40;0.80;;;;;;;22.79;36.17;98745.75;8447213;28;20535;-73
2022/08/06 06:55:06;;;;;;;3.50;0.83;;;;;;;22.88;35.88;98746.75;8447372;28;20238;-74
2022/08/06 06:59:25;;;;;;;2.30;0.90;;;;;;;22.80;36.18;98749.22;8447315;28;20237;-73
2022/08/06 07:03:50;;;;;;;2.03;0.83;;;;;;;23.00;35.47;98744.94;8446642;28;20240;-73
2022/08/06 07:07:53;;;;;;;2.47;0.90;;;;;;;23.05;35.25;98757.78;8447167;28;20260;-73
2022/08/06 07:11:59;;;;;;;3.27;0.77;;;;;;;23.20;34.99;98761.78;8446911;28;20249;-74
2022/08/06 07:16:06;;;;;;;1.97;0.77;;;;;;;23.56;35.07;98760.44;8447144;28;20316;-74
2022/08/06 07:20:13;;;;;;;2.50;0.70;;;;;;;23.43;34.28;98757.19;8446719;28;20559;-74
2022/08/06 07:24:19;;;;;;;3.97;0.87;;;;;;;23.88;34.48;98764.00;8446053;28;20337;-74
2022/08/06 07:28:43;;;;;;;2.10;0.70;;;;;;;24.03;33.97;98765.28;8446113;28;20228;-74
2022/08/06 07:32:47;;;;;;;2.47;0.60;;;;;;;24.34;33.67;98771.34;8446723;28;20233;-74
2022/08/06 07:36:55;;;;;;;2.73;0.80;;;;;;;24.55;32.50;98760.69;8446310;28;20428;-73
2022/08/06 07:41:03;;;;;;;1.30;0.70;;;;;;;24.32;32.94;98769.81;8446446;28;20230;-73
2022/08/06 07:45:11;;;;;;;2.03;0.67;;;;;;;24.39;33.04;98774.44;8446718;28;20236;-74
2022/08/06 07:49:21;;;;;;;3.43;0.80;;;;;;;24.55;33.33;98776.59;8446411;28;20233;-74
2022/08/06 07:53:37;;;;;;;2.30;0.77;;;;;;;24.43;31.90;98774.16;8446186;28;20537;-74
2022/08/06 07:57:57;;;;;;;2.60;0.60;;;;;;;25.10;32.35;98776.03;8445761;28;20249;-74
2022/08/06 08:02:03;;;;;;;2.40;0.97;;;;;;;25.28;31.82;98770.06;8446057;28;20482;-73
2022/08/06 08:06:21;;;;;;;2.83;0.80;;;;;;;25.63;30.79;98777.38;8446269;28;20235;-74
2022/08/06 08:10:26;;;;;;;1.70;0.73;;;;;;;25.82;31.08;98775.66;8446525;28;20226;-74
2022/08/06 08:14:31;;;;;;;1.60;0.60;;;;;;;25.80;30.61;98775.78;8446096;28;20240;-74
2022/08/06 08:18:34;;;;;;;1.90;0.83;;;;;;;26.22;30.37;98771.88;8446015;28;20237;-74
2022/08/06 08:22:37;;;;;;;3.53;0.87;;;;;;;26.30;30.59;98779.91;8445636;28;20233;-71
2022/08/06 08:26:52;;;;;;;2.23;0.80;;;;;;;26.43;29.89;98784.88;8445236;28;20219;-74
2022/08/06 08:31:15;;;;;;;2.93;1.00;;;;;;;26.48;29.84;98785.25;8445507;28;20234;-74
2022/08/06 08:35:28;;;;;;;3.17;0.93;;;;;;;26.34;29.11;98782.13;8448956;28;20524;-74
2022/08/06 08:39:38;;;;;;;1.73;0.77;;;;;;;26.55;29.36;98782.84;8451783;28;20231;-73
2022/08/06 08:43:49;;;;;;;3.63;0.80;;;;;;;26.74;28.36;98777.41;8451468;28;20224;-74
2022/08/06 08:48:06;;;;;;;4.00;0.80;;;;;;;27.06;28.29;98782.19;8451222;28;20531;-74
2022/08/06 08:52:15;;;;;;;2.07;0.80;;;;;;;27.39;27.75;98778.97;8451281;28;20227;-74
2022/08/06 08:56:19;;;;;;;2.87;0.80;;;;;;;27.49;27.48;98775.22;8451082;28;20244;-75
2022/08/06 09:00:44;;;;;;;1.80;0.63;;;;;;;27.74;27.80;98770.06;8450771;28;20543;-74
2022/08/06 09:04:56;;;;;;;2.83;0.80;;;;;;;27.98;26.92;98766.69;8450029;28;20247;-74
2022/08/06 09:09:03;;;;;;;2.87;0.60;;;;;;;28.24;27.29;98771.97;8450926;28;20258;-74
2022/08/06 09:13:07;;;;;;;2.23;0.53;;;;;;;28.10;25.85;98769.06;8450701;28;20240;-74
2022/08/06 09:17:27;;;;;;;3.10;0.83;;;;;;;28.52;25.66;98768.22;8450734;28;20230;-74
2022/08/06 09:21:50;;;;;;;7.90;1.00;;;;;;;28.62;26.83;98766.25;8416401;28;20236;-75
2022/08/06 09:25:53;;;;;;;5.57;1.20;;;;;;;29.04;26.82;98773.28;8416648;28;20343;-76
2022/08/06 09:30:02;;;;;;;6.33;1.00;;;;;;;28.79;26.64;98756.47;8416682;28;20251;-78
2022/08/06 09:34:34;;;;;;;5.57;0.80;;;;;;;29.06;25.36;98763.28;8413609;28;20525;-75
2022/08/06 09:38:47;;;;;;;6.93;1.20;;;;;;;29.12;25.70;98767.13;8410519;28;20414;-78
2022/08/06 09:42:52;;;;;;;4.97;0.77;;;;;;;28.97;24.98;98753.63;8415800;28;20229;-77
2022/08/06 09:46:57;;;;;;;2.43;0.90;;;;;;;28.23;24.42;98770.28;8415385;28;20238;-80
2022/08/06 09:51:02;;;;;;;1.30;0.70;;;;;;;29.14;25.05;98759.81;8415779;28;20253;-77
2022/08/06 09:55:06;;;;;;;2.23;1.00;;;;;;;29.49;24.62;98755.91;8415926;28;20231;-77
2022/08/06 09:59:18;;;;;;;1.63;0.60;;;;;;;29.76;23.39;98760.06;8415791;28;20237;-78
2022/08/06 10:03:22;;;;;;;2.57;0.77;;;;;;;29.53;22.62;98746.59;8410990;28;20313;-78
2022/08/06 10:07:46;;;;;;;4.70;1.30;;;;;;;29.42;23.19;98755.78;8387696;28;20455;-78
2022/08/06 10:11:56;;;;;;;2.93;0.73;;;;;;;29.85;23.49;98752.84;8384932;28;20292;-78
2022/08/06 10:16:02;;;;;;;3.90;0.90;;;;;;;30.14;22.85;98760.25;8382346;28;20410;-78
2022/08/06 10:20:08;;;;;;;4.13;0.70;;;;;;;30.30;22.94;98756.66;8405868;28;20239;-78
2022/08/06 10:24:13;;;;;;;3.53;1.00;;;;;;;30.53;21.70;98756.72;8414848;28;20250;-78
2022/08/06 10:28:37;;;;;;;2.23;1.07;;;;;;;30.67;22.08;98749.78;8414886;28;20226;-76
2022/08/06 10:32:44;;;;;;;1.83;0.70;;;;;;;30.74;21.25;98753.41;8414508;28;20330;-76
2022/08/06 10:36:55;;;;;;;2.80;0.70;;;;;;;30.81;21.63;98750.84;8414154;28;20239;-76
2022/08/06 10:41:04;;;;;;;3.07;0.70;;;;;;;30.75;21.41;98748.91;8414266;28;20245;-77
2022/08/06 10:45:10;;;;;;;3.83;0.80;;;;;;;31.08;21.90;98754.03;8394012;28;20293;-74
2022/08/06 10:49:17;;;;;;;3.63;0.80;;;;;;;31.04;21.08;98753.53;8381082;28;20344;-77
2022/08/06 10:53:42;;;;;;;4.22;0.90;;;;;;;31.41;20.11;98743.00;8396245;28;20419;-77
2022/08/06 10:58:06;;;;;;;6.17;0.80;;;;;;;30.75;21.16;98739.03;8413180;28;20235;-78
2022/08/06 11:02:29;;;;;;;3.27;0.60;;;;;;;31.13;20.51;98744.44;8399084;28;20420;-77
2022/08/06 11:06:48;;;;;;;1.37;0.53;;;;;;;31.21;19.92;98737.34;8414192;28;20241;-77
2022/08/06 11:11:11;;;;;;;2.73;0.60;;;;;;;31.18;19.33;98742.03;8413278;28;20232;-76
2022/08/06 11:15:29;;;;;;;2.07;0.80;;;;;;;31.48;19.96;98734.09;8411854;28;20272;-76
2022/08/06 11:19:44;;;;;;;0.67;0.60;;;;;;;30.96;19.82;98729.56;8407326;28;20552;-77
2022/08/06 11:24:01;;;;;;;2.40;0.80;;;;;;;31.20;20.83;98741.84;8413138;28;20270;-76
2022/08/06 11:28:06;;;;;;;2.07;0.60;;;;;;;31.40;20.81;98727.94;8392593;28;20256;-77
2022/08/06 11:32:39;;;;;;;2.07;0.77;;;;;;;30.58;18.42;98721.47;8380258;28;20234;-77
2022/08/06 11:36:51;;;;;;;1.67;0.80;;;;;;;30.84;19.63;98715.72;8399416;28;20458;-77
2022/08/06 11:41:01;;;;;;;2.67;0.57;;;;;;;30.68;21.02;98722.03;8446066;28;20241;-77
2022/08/06 11:45:11;;;;;;;0.73;0.50;;;;;;;30.68;19.19;98715.88;8434499;28;20260;-77
2022/08/06 11:49:39;;;;;;;2.70;0.50;;;;;;;30.94;18.47;98721.69;8437788;28;20234;-77
2022/08/06 11:54:08;;;;;;;3.47;0.70;;;;;;;30.69;18.74;98726.41;8442119;28;20233;-77
2022/08/06 11:58:20;;;;;;;1.20;0.50;;;;;;;30.72;19.15;98714.50;8446096;28;20410;-77
2022/08/06 12:02:56;;;;;;;2.90;0.50;;;;;;;31.25;18.34;98704.69;8437880;28;20297;-76
2022/08/06 12:07:14;;;;;;;1.37;0.60;;;;;;;31.31;19.06;98711.97;8446139;28;20267;-77
2022/08/06 12:11:32;;;;;;;1.53;0.50;;;;;;;31.51;18.69;98709.63;8450593;28;20224;-77
2022/08/06 12:15:38;;;;;;;1.50;0.60;;;;;;;31.83;18.40;98720.13;8452761;28;20519;-77
2022/08/06 12:20:01;;;;;;;1.17;0.53;;;;;;;32.08;17.81;98705.44;8452092;28;20237;-77
2022/08/06 12:24:05;;;;;;;3.47;0.90;;;;;;;32.18;18.62;98702.47;8452228;28;20246;-77
2022/08/06 12:28:14;;;;;;;2.30;0.67;;;;;;;32.02;18.38;98698.16;8452424;28;20215;-77
2022/08/06 12:32:20;;;;;;;0.93;0.40;;;;;;;31.91;18.33;98693.25;8451946;28;20232;-76
2022/08/06 12:36:28;;;;;;;1.20;0.50;;;;;;;32.01;18.54;98687.63;8451990;28;20223;-76
2022/08/06 12:40:37;;;;;;;2.53;0.60;;;;;;;31.43;18.58;98682.91;8451912;28;20320;-77
2022/08/06 12:44:43;;;;;;;1.60;0.70;;;;;;;31.90;18.32;98681.72;8451474;28;20240;-77
2022/08/06 12:49:01;;;;;;;2.27;0.67;;;;;;;31.76;18.06;98667.34;8451322;28;20230;-77
2022/08/06 12:53:06;;;;;;;2.03;0.60;;;;;;;31.81;17.61;98674.78;8451311;28;20570;-77
2022/08/06 12:57:20;;;;;;;2.57;0.57;;;;;;;31.91;17.77;98675.34;8451089;28;20232;-77
2022/08/06 13:01:47;;;;;;;0.70;0.40;;;;;;;31.98;17.55;98672.72;8450540;28;20245;-77
2022/08/06 13:06:10;;;;;;;0.77;0.50;;;;;;;32.03;18.23;98675.72;8450888;28;20394;-77
2022/08/06 13:10:33;;;;;;;1.50;0.60;;;;;;;32.13;18.52;98668.19;8450624;28;20424;-77
2022/08/06 13:14:49;;;;;;;0.80;0.53;;;;;;;32.12;17.58;98654.97;8450256;28;20425;-77
2022/08/06 13:19:08;;;;;;;2.33;0.67;;;;;;;32.04;17.46;98653.25;8450202;28;20239;-76
2022/08/06 13:23:29;;;;;;;1.70;0.60;;;;;;;32.20;17.54;98657.56;8449153;28;20525;-76
2022/08/06 13:27:37;;;;;;;2.93;0.87;;;;;;;31.68;17.17;98645.19;8450135;28;20229;-77
2022/08/06 13:32:06;;;;;;;3.07;0.50;;;;;;;31.80;18.29;98642.88;8449789;28;20264;-77
2022/08/06 13:36:32;;;;;;;3.50;0.60;;;;;;;31.80;17.94;98640.19;8449943;28;20219;-74
2022/08/06 13:40:44;;;;;;;1.00;0.50;;;;;;;31.71;17.89;98640.28;8449683;28;20268;-77
2022/08/06 13:44:53;;;;;;;1.20;0.50;;;;;;;31.81;17.38;98633.81;8426103;28;20241;-76
2022/08/06 13:48:58;;;;;;;1.27;0.60;;;;;;;31.83;17.53;98639.81;8408883;28;20242;-77
2022/08/06 13:53:05;;;;;;;1.03;0.47;;;;;;;31.55;18.03;98638.66;8425087;28;20233;-77
2022/08/06 13:57:15;;;;;;;1.53;0.60;;;;;;;31.76;17.61;98631.72;8415335;28;20225;-76
2022/08/06 14:01:18;;;;;;;3.33;0.60;;;;;;;31.47;17.66;98635.25;8436571;28;20241;-76
2022/08/06 14:05:22;;;;;;;1.30;0.50;;;;;;;31.33;17.67;98629.69;8448688;28;20527;-76
2022/08/06 14:09:28;;;;;;;2.07;0.50;;;;;;;31.42;18.35;98629.59;8448859;28;20229;-77
2022/08/06 14:13:51;;;;;;;2.97;0.67;;;;;;;31.35;17.69;98616.13;8448139;28;20421;-77
2022/08/06 14:17:55;;;;;;;2.53;0.43;;;;;;;31.30;17.97;98622.03;8448396;28;20244;-77
2022/08/06 14:21:58;;;;;;;1.83;0.70;;;;;;;31.35;18.18;98606.25;8448250;28;20234;-77
2022/08/06 14:26:07;;;;;;;2.80;0.50;;;;;;;31.20;18.69;98613.44;8448190;28;20477;-76
2022/08/06 14:30:15;;;;;;;2.30;0.70;;;;;;;31.16;17.78;98598.78;8447895;28;20225;-77
2022/08/06 14:34:34;;;;;;;1.50;0.50;;;;;;;31.29;18.27;98601.63;8447793;28;20250;-76
2022/08/06 14:38:40;;;;;;;2.23;0.53;;;;;;;31.07;18.77;98603.41;8447925;28;20227;-76
2022/08/06 14:47:08;;;;;;;2.47;0.50;;;;;;;30.47;18.96;98594.44;8447423;28;20229;-75
2022/08/06 14:51:21;;;;;;;1.27;0.40;;;;;;;30.18;18.38;98593.31;8447635;28;20290;-75
2022/08/06 14:55:25;;;;;;;3.43;0.70;;;;;;;29.44;18.89;98587.56;8447362;28;20246;-75
2022/08/06 14:59:34;;;;;;;2.63;0.90;;;;;;;29.50;19.86;98586.03;8447203;28;20242;-76
2022/08/06 15:03:50;;;;;;;1.83;0.60;;;;;;;29.80;19.84;98589.72;8446700;28;20271;-75
2022/08/06 15:07:54;;;;;;;4.40;0.60;;;;;;;29.61;19.73;98590.97;8447218;28;20230;-76
2022/08/06 15:12:03;;;;;;;3.40;0.73;;;;;;;29.94;20.07;98582.78;8446661;28;20233;-76
2022/08/06 15:16:08;;;;;;;1.27;0.53;;;;;;;30.02;20.05;98583.59;8446935;28;20232;-75
2022/08/06 15:20:31;;;;;;;5.13;0.80;;;;;;;29.84;20.60;98582.22;8434389;28;20230;-76
2022/08/06 15:24:34;;;;;;;2.07;0.70;;;;;;;29.63;19.30;98576.44;8444542;28;20354;-76
2022/08/06 15:28:40;;;;;;;1.83;0.50;;;;;;;29.30;19.35;98575.78;8446372;28;20229;-75
2022/08/06 15:32:53;;;;;;;2.87;0.93;;;;;;;29.36;20.36;98574.22;8437591;28;20222;-75
2022/08/06 15:36:59;;;;;;;2.63;0.50;;;;;;;29.40;19.78;98578.22;8446634;28;20231;-75
2022/08/06 15:41:06;;;;;;;3.73;0.60;;;;;;;29.42;19.04;98576.22;8446095;28;20231;-75
2022/08/06 15:45:10;;;;;;;2.30;0.73;;;;;;;28.81;19.63;98578.56;8449021;28;20231;-75
2022/08/06 15:49:35;;;;;;;1.20;0.60;;;;;;;29.16;19.12;98584.47;8453334;28;20229;-75
2022/08/06 15:53:58;;;;;;;2.97;0.73;;;;;;;28.66;19.59;98581.91;8452381;28;20406;-74
2022/08/06 15:58:01;;;;;;;3.37;0.57;;;;;;;28.51;19.89;98575.56;8427133;28;20234;-76
2022/08/06 16:02:09;;;;;;;2.00;0.80;;;;;;;28.81;20.50;98567.91;8425058;28;20233;-77
2022/08/06 16:06:33;;;;;;;4.47;0.70;;;;;;;28.69;20.30;98578.06;8452716;28;20545;-74
2022/08/06 16:10:36;;;;;;;1.33;0.50;;;;;;;28.65;19.44;98574.94;8452628;28;20519;-74
2022/08/06 16:14:42;;;;;;;2.07;0.53;;;;;;;28.71;20.19;98572.56;8452292;28;20232;-74
2022/08/06 16:18:59;;;;;;;1.27;0.57;;;;;;;28.53;19.52;98578.91;8452161;28;20239;-73
2022/08/06 16:23:05;;;;;;;1.27;0.63;;;;;;;28.44;20.07;98572.75;8429681;28;20241;-74
2022/08/06 16:27:29;;;;;;;2.73;0.70;;;;;;;28.32;19.74;98573.25;8418358;28;20553;-73
2022/08/06 16:31:41;;;;;;;3.13;0.60;;;;;;;28.11;20.75;98574.56;8418129;28;20241;-73
2022/08/06 16:35:55;;;;;;;2.00;0.60;;;;;;;27.57;20.27;98574.09;8401055;28;20228;-73
2022/08/06 16:40:01;;;;;;;3.10;1.20;;;;;;;27.50;20.04;98577.41;8417995;28;20245;-83
2022/08/06 16:44:24;;;;;;;2.17;0.70;;;;;;;27.80;20.59;98574.34;8417788;28;20242;-83
2022/08/06 16:48:37;;;;;;;2.00;0.70;;;;;;;27.77;21.28;98572.81;8417629;28;20288;-73
2022/08/06 16:52:43;;;;;;;5.13;0.70;;;;;;;27.55;20.58;98584.91;8417129;28;20223;-74
2022/08/06 16:57:07;;;;;;;2.80;0.80;;;;;;;27.65;21.16;98571.47;8400485;28;20532;-73
2022/08/06 17:01:10;;;;;;;3.60;0.90;;;;;;;26.92;20.78;98576.28;8416219;28;20233;-73
2022/08/06 17:05:34;;;;;;;1.33;0.60;;;;;;;26.98;20.58;98572.19;8417111;28;20344;-74
2022/08/06 17:09:48;;;;;;;1.10;0.60;;;;;;;26.64;21.99;98572.13;8416702;28;20225;-73
2022/08/06 17:13:53;;;;;;;2.63;0.73;;;;;;;26.83;21.65;98573.75;8416884;28;20228;-73
2022/08/06 17:17:56;;;;;;;2.27;0.77;;;;;;;26.81;22.16;98573.06;8416787;28;20254;-73
2022/08/06 17:21:59;;;;;;;1.23;0.40;;;;;;;26.77;23.22;98574.34;8416539;28;20269;-72
2022/08/06 17:26:03;;;;;;;3.10;0.70;;;;;;;26.83;22.55;98573.75;8416599;28;20360;-72
2022/08/06 17:30:13;;;;;;;4.07;0.80;;;;;;;26.74;22.17;98580.00;8416602;28;20223;-73
2022/08/06 17:34:18;;;;;;;1.30;0.60;;;;;;;26.62;22.75;98580.25;8416261;28;20261;-73
2022/08/06 17:38:21;;;;;;;2.53;0.70;;;;;;;26.55;23.02;98581.81;8416294;28;20233;-73
2022/08/06 17:42:25;;;;;;;2.60;0.57;;;;;;;26.42;22.38;98576.09;8416066;28;20301;-72
2022/08/06 17:46:31;;;;;;;1.53;0.60;;;;;;;26.11;22.41;98566.69;8415974;28;20232;-73
2022/08/06 17:50:39;;;;;;;2.70;0.80;;;;;;;26.32;22.73;98577.00;8415643;28;20233;-73
2022/08/06 17:54:46;;;;;;;5.07;0.90;;;;;;;26.23;23.81;98574.44;8415507;28;20253;-74
2022/08/06 17:58:59;;;;;;;2.93;1.10;;;;;;;26.10;23.22;98569.50;8397193;28;20235;-70
2022/08/06 18:03:22;;;;;;;3.70;0.80;;;;;;;26.06;22.74;98570.78;8397359;28;20235;-76
2022/08/06 18:07:45;;;;;;;3.73;0.80;;;;;;;26.16;23.88;98574.22;8447640;28;20402;-77
2022/08/06 18:12:09;;;;;;;1.07;0.60;;;;;;;26.13;23.99;98578.00;8448065;28;20235;-76
2022/08/06 18:16:12;;;;;;;2.10;0.50;;;;;;;26.12;24.02;98583.44;8448235;28;20226;-76
2022/08/06 18:20:18;;;;;;;1.17;0.63;;;;;;;26.01;24.05;98587.19;8448117;28;20282;-76
2022/08/06 18:24:34;;;;;;;2.27;0.57;;;;;;;26.00;24.02;98590.00;8447824;28;20315;-75
2022/08/06 18:28:37;;;;;;;1.70;0.73;;;;;;;25.91;24.79;98583.72;8447932;28;20232;-76
2022/08/06 18:32:51;;;;;;;1.40;0.63;;;;;;;25.94;25.17;98597.56;8447172;28;20232;-76
2022/08/06 18:36:55;;;;;;;6.97;0.80;;;;;;;25.87;25.25;98593.78;8447349;28;20238;-76
2022/08/06 18:41:07;;;;;;;2.87;0.60;;;;;;;25.71;24.93;98596.28;8447105;28;20248;-76
2022/08/06 18:45:17;;;;;;;1.73;1.03;;;;;;;25.71;24.98;98597.13;8447093;28;20241;-76
2022/08/06 18:49:22;;;;;;;11.57;2.63;;;;;;;25.64;27.64;98595.22;8446841;28;20279;-76
2022/08/06 18:53:47;;;;;;;8.50;1.90;;;;;;;25.54;37.59;98612.00;8445705;28;20221;-76
2022/08/06 18:58:07;;;;;;;2.60;0.70;;;;;;;25.34;31.18;98618.38;8446278;28;20864;-76
2022/08/06 19:02:15;;;;;;;1.33;0.60;;;;;;;25.16;27.88;98615.63;8445865;28;20246;-76
2022/08/06 19:06:24;;;;;;;1.10;0.53;;;;;;;25.14;33.50;98621.06;8446225;28;20229;-76
2022/08/06 19:10:32;;;;;;;2.07;0.70;;;;;;;25.13;29.26;98623.88;8445038;28;20293;-76
2022/08/06 19:14:39;;;;;;;3.90;0.70;;;;;;;24.92;28.82;98626.72;8446170;28;20323;-77
2022/08/06 19:18:46;;;;;;;1.27;0.80;;;;;;;24.81;30.60;98629.53;8445210;28;20251;-76
2022/08/06 19:22:59;;;;;;;2.40;0.80;;;;;;;24.78;32.97;98631.47;8445578;28;20225;-76
2022/08/06 19:27:10;;;;;;;1.83;0.60;;;;;;;24.77;32.53;98634.31;8445885;28;20423;-77
2022/08/06 19:31:13;;;;;;;2.90;0.60;;;;;;;24.71;31.36;98638.34;8445474;28;20233;-76
2022/08/06 19:35:35;;;;;;;2.13;0.70;;;;;;;24.65;31.99;98635.41;8445859;28;20340;-74
2022/08/06 19:44:22;;;;;;;2.60;0.77;;;;;;;24.49;32.88;98641.25;8445430;28;20423;-74
2022/08/06 19:48:39;;;;;;;2.13;0.60;;;;;;;24.38;34.07;98648.34;8445444;28;20285;-74
2022/08/06 19:52:47;;;;;;;1.10;0.80;;;;;;;24.36;31.80;98639.72;8444938;28;20500;-74